Weather reports worldwide

Advertisment
Zinnwald-Georgenfeld, Germany (10582): temperature & dewpoint: 11.11.2018 04:00:00 - 17.11.2018 04:00:00 (CET)Zinnwald-Georgenfeld, Germany (10582): temperature 5cm & temperature -5cm: 11.11.2018 04:00:00 - 17.11.2018 04:00:00 (CET)Zinnwald-Georgenfeld, Germany (10582): temperature -20cm & temperature -100cm: 11.11.2018 04:00:00 - 17.11.2018 04:00:00 (CET)Zinnwald-Georgenfeld, Germany (10582): wind speed & gusts: 11.11.2018 04:00:00 - 17.11.2018 04:00:00 (CET)Zinnwald-Georgenfeld, Germany (10582): wind direction: 11.11.2018 04:00:00 - 17.11.2018 04:00:00 (CET)Zinnwald-Georgenfeld, Germany (10582): visibility: 11.11.2018 04:00:00 - 17.11.2018 04:00:00 (CET)Zinnwald-Georgenfeld, Germany (10582): sunshine duration: 11.11.2018 04:00:00 - 17.11.2018 04:00:00 (CET)Zinnwald-Georgenfeld, Germany (10582): precipitation: 11.11.2018 04:00:00 - 17.11.2018 04:00:00 (CET)
Date & Time tt [°C] td [°C] tt 5cm [°C] tt -5cm [°C] tt -20cm [°C] tt -100cm [°C] ff [km/h] ff [kn] fx [km/h] fx [kn] dd vv [km] sd [min] rr [mm]
17.11.2018 04:00:00 0,0 -2,6 -1,5 -0,1 2,0 7,8 21 11 32 17 SE 25 0 0,0
17.11.2018 03:00:00 0,1 -2,5 -1,8 0,0 2,0 7,8 22 12 32 18 ESE 32 0 0,0
17.11.2018 02:00:00 -1,6 -2,5 -3,0 0,1 2,1 7,8 14 8 35 19 SSE 6 0 0,0
17.11.2018 01:00:00 -1,3 -2,4 -2,3 0,2 2,2 7,8 24 13 41 22 SSE 6 0 0,0
17.11.2018 00:00:00 -0,9 -2,2 -2,0 0,3 2,2 7,8 28 15 43 23 SSE 7 0 0,0
16.11.2018 23:00:00 -0,6 -2,1 -1,2 0,3 2,3 7,9 27 15 40 22 SE 7 0 0,0
16.11.2018 22:00:00 -0,2 -2,0 -0,5 0,4 2,4 7,9 22 12 34 19 ESE 9 0 0,0
16.11.2018 21:00:00 0,0 -2,1 -0,4 0,4 2,5 7,9 21 11 35 19 ESE 12 0 0,0
16.11.2018 20:00:00 0,0 -1,7 -0,5 0,4 2,6 7,9 18 10 30 16 ESE 12 0 0,0
16.11.2018 19:00:00 0,3 -1,5 -0,4 0,5 2,7 7,9 16 9 24 13 ESE 12 0 0,0
16.11.2018 18:00:00 0,8 -0,8 0,0 0,4 2,8 7,9 15 8 23 12 ESE 10 0 0,0
16.11.2018 17:00:00 0,5 -1,1 -1,0 0,2 2,9 7,9 13 7 16 9 ESE 9 0 0,0
16.11.2018 16:00:00 1,1 -1,1 -1,5 1,1 2,9 7,9 11 6 31 17 SE 13 54 0,0
16.11.2018 15:00:00 1,8 -1,0 0,1 2,3 2,6 7,9 22 12 35 19 S 14 60 0,0
16.11.2018 14:00:00 2,2 -1,1 2,8 3,0 2,3 7,9 21 12 36 19 SSE 14 60 0,0
16.11.2018 13:00:00 2,3 -0,7 2,9 1,1 2,1 7,9 24 13 36 19 SSE 14 60 0,0
16.11.2018 12:00:00 2,2 -0,2 2,7 0,1 2,0 8,0 26 14 38 20 SSE 11 59 0,0
16.11.2018 11:00:00 1,6 -0,4 0,9 0,1 2,1 8,0 28 15 41 22 SSE 10 59 0,0
16.11.2018 10:00:00 1,0 -0,6 0,5 0,0 2,1 8,0 29 16 40 21 SSE 10 59 0,0
16.11.2018 09:00:00 0,2 -0,5 -0,3 0,0 2,2 8,0 29 16 39 21 SSE 6 54 0,0
16.11.2018 08:00:00 -0,6 -1,1 -1,4 0,0 2,3 8,0 27 14 39 21 S 3,8 0 0,0
16.11.2018 07:00:00 -0,7 -1,3 -1,7 0,1 2,4 8,0 31 17 42 23 S 3,3 0 0,0
16.11.2018 06:00:00 -0,2 -1,5 -1,3 0,2 2,5 8,0 32 17 43 23 S 8 0 0,0
16.11.2018 05:00:00 0,0 -1,5 -1,2 0,3 2,6 8,0 34 18 45 24 S 10 0 0,0
16.11.2018 04:00:00 0,0 -1,2 -1,1 0,3 2,6 8,0 36 20 46 25 S 7 0 0,0
16.11.2018 03:00:00 0,1 -0,9 -0,9 0,4 2,7 8,0 35 19 49 27 S 6 0 0,0
16.11.2018 02:00:00 0,1 -0,7 -0,8 0,4 2,8 8,0 35 19 47 25 SSE 5 0 0,0
16.11.2018 01:00:00 0,0 -0,3 -1,6 0,4 2,9 8,0 34 18 48 26 S 2,8 0 0,0
16.11.2018 00:00:00 -0,1 -0,3 -1,3 0,5 3,1 8,1 24 13 35 19 S 0,1 0 0,0
15.11.2018 23:00:00 0,3 0,1 -1,2 0,2 3,3 8,1 27 15 51 28 SSE 0,2 0 0,0
15.11.2018 22:00:00 1,2 0,5 -0,8 0,4 3,5 8,1 34 19 51 28 SSE 5 0 0,0
15.11.2018 21:00:00 2,1 0,5 0,0 0,8 3,7 8,1 35 19 47 25 SSE 12 0 0,0
15.11.2018 20:00:00 2,3 0,3 0,2 1,0 3,9 8,1 34 18 44 24 SSE 18 0 0,0
15.11.2018 19:00:00 2,0 0,3 -0,1 1,2 4,2 8,1 31 17 39 21 S 13 0 0,0
15.11.2018 18:00:00 2,1 0,3 -0,1 1,5 4,4 8,1 29 15 36 19 S 16 0 0,0
15.11.2018 17:00:00 1,7 0,8 -0,5 2,2 4,6 8,1 27 14 34 18 S 4,8 0 0,0
15.11.2018 16:00:00 2,6 1,5 0,5 3,4 4,7 8,1 23 13 34 18 S 5 55 0,0
15.11.2018 15:00:00 3,7 1,8 1,9 4,7 4,5 8,1 26 14 34 18 S 10 60 0,0
15.11.2018 14:00:00 4,2 2,0 4,2 5,9 4,1 8,1 26 14 35 19 S 11 59 0,0
15.11.2018 13:00:00 4,4 2,7 4,9 6,0 3,7 8,1 25 13 37 20 S 8 60 0,0
15.11.2018 12:00:00 4,2 3,0 4,3 5,4 3,4 8,1 26 14 35 19 S 7 26 0,0
15.11.2018 11:00:00 3,2 2,9 2,8 4,6 3,1 8,1 24 13 35 19 S 3,6 0 0,0
15.11.2018 10:00:00 2,8 2,7 2,3 3,3 3,0 8,1 19 10 30 16 S 0,5 0 0,0
15.11.2018 09:00:00 2,2 2,1 1,2 1,7 3,0 8,1 21 12 27 15 S 0,3 13 0,0
15.11.2018 08:00:00 1,3 1,2 -0,1 1,0 3,0 8,1 19 11 28 15 S 0,1 0 0,0
15.11.2018 07:00:00 1,4 1,3 0,2 0,9 3,1 8,2 21 11 24 13 S 0,1 0 0,0
15.11.2018 06:00:00 1,8 1,4 0,3 1,0 3,1 8,2 18 10 24 13 S 5 0 0,0
15.11.2018 05:00:00 2,0 1,6 0,7 0,7 3,2 8,2 16 9 21 11 S 8 0 0,0
15.11.2018 04:00:00 1,7 1,4 -0,2 0,5 3,3 8,2 16 9 21 11 S 8 0 0,0
15.11.2018 03:00:00 2,0 1,7 0,7 0,7 3,5 8,2 18 10 25 14 S 7 0 0,0
15.11.2018 02:00:00 2,1 1,9 0,7 0,7 3,6 8,2 19 10 27 15 S 1,8 0 0,0
15.11.2018 01:00:00 2,4 2,0 1,2 0,8 3,8 8,2 19 10 26 14 S 10 0 0,0
15.11.2018 00:00:00 2,4 2,0 1,0 0,8 4,0 8,2 19 10 24 13 S 10 0 0,0
14.11.2018 23:00:00 2,1 1,8 0,7 0,8 4,2 8,2 17 9 23 12 S 6 0 0,0
14.11.2018 22:00:00 2,2 1,8 0,8 0,9 4,5 8,2 16 9 22 12 S 7 0 0,0
14.11.2018 21:00:00 1,9 1,6 -0,3 0,8 4,9 8,2 15 8 18 10 S 1,7 0 0,0
14.11.2018 20:00:00 1,9 1,3 -1,0 1,0 5,3 8,2 13 7 16 9 S 6 0 0,0
14.11.2018 19:00:00 2,9 2,4 -2,3 1,5 5,7 8,2 5 3 9 5 S 6 0 0,0
14.11.2018 18:00:00 3,1 2,0 -1,3 2,3 6,1 8,2 5 3 10 5 S 16 0 0,0
14.11.2018 17:00:00 3,7 1,4 -2,7 3,5 6,4 8,2 7 4 9 5 W 53 0 0,0
14.11.2018 16:00:00 5,7 1,9 -0,3 5,4 6,4 8,2 5 3 11 6 WSW 65 52 0,0
14.11.2018 15:00:00 6,4 1,8 4,1 7,0 6,2 8,2 9 5 19 11 W 30 60 0,0
14.11.2018 14:00:00 6,7 2,4 7,2 8,2 5,9 8,2 12 6 18 10 WSW 41 59 0,0
14.11.2018 13:00:00 5,9 2,3 6,3 8,3 5,6 8,2 10 6 24 13 W 38 59 0,0
14.11.2018 12:00:00 5,1 2,9 4,7 7,7 5,2 8,2 14 8 23 13 WNW 42 30 0,0
14.11.2018 11:00:00 5,1 3,6 6,0 7,7 5,0 8,2 12 6 26 14 W 54 16 0,0
14.11.2018 10:00:00 4,5 3,1 4,3 5,6 4,8 8,2 14 8 29 16 WNW 31 42 0,0
14.11.2018 09:00:00 4,0 3,3 3,2 4,4 4,8 8,2 18 10 29 16 W 17 31 0,0
14.11.2018 08:00:00 3,4 3,1 2,2 4,0 4,9 8,2 13 7 24 13 W 8 0 0,0
14.11.2018 07:00:00 3,4 3,1 2,1 4,0 4,9 8,2 11 6 27 15 WNW 4,0 0 0,0
14.11.2018 06:00:00 3,5 3,2 2,3 4,1 4,9 8,2 14 7 29 16 WNW 4,6 0 0,0
14.11.2018 05:00:00 3,6 3,2 2,3 4,1 5,0 8,2 18 10 30 16 WNW 8 0 0,0
14.11.2018 04:00:00 3,8 3,4 2,5 4,1 5,0 8,3 16 8 28 15 WNW 9 0 0,0
14.11.2018 03:00:00 3,9 3,4 2,3 4,1 5,0 8,3 17 9 39 21 WNW 15 0 0,0
14.11.2018 02:00:00 4,1 3,7 2,8 4,2 5,1 8,3 13 7 30 16 WNW 13 0 0,0
14.11.2018 01:00:00 4,2 3,7 2,7 4,2 5,2 8,3 14 8 34 18 WNW 15 0 0,0
14.11.2018 00:00:00 4,5 3,9 3,0 4,2 5,2 8,3 18 10 36 19 W 17 0 0,0
13.11.2018 23:00:00 4,8 4,2 3,2 4,4 5,2 8,3 20 11 35 19 WNW 20 0 0,0
13.11.2018 22:00:00 4,8 4,4 3,4 4,4 5,3 8,3 16 9 37 20 WNW 17 0 0,0
13.11.2018 21:00:00 4,7 4,2 3,0 3,9 5,5 8,3 23 12 40 22 W 26 0 0,0
13.11.2018 20:00:00 4,6 4,0 2,4 3,7 5,7 8,3 22 12 42 23 W 30 0 0,0
13.11.2018 19:00:00 5,0 4,5 3,1 4,3 5,9 8,3 21 11 37 20 W 30 0 0,0
13.11.2018 18:00:00 5,2 4,7 3,0 4,8 6,0 8,3 19 11 39 21 W 31 0 0,0
13.11.2018 17:00:00 5,8 5,5 4,0 5,9 6,0 8,3 21 11 36 20 W 18 0 0,1
13.11.2018 16:00:00 6,2 6,0 4,8 6,6 5,9 8,3 18 10 32 17 W 13 0 1,0
13.11.2018 15:00:00 6,5 6,2 5,1 6,8 5,8 8,3 18 10 37 20 W 7 0 0,1
13.11.2018 14:00:00 6,9 6,6 5,6 7,0 5,6 8,3 20 11 40 22 W 29 0 0,0
13.11.2018 13:00:00 7,6 7,5 6,2 6,9 5,4 8,3 16 9 31 17 W 6 0 0,5
13.11.2018 12:00:00 7,9 7,7 6,5 6,7 5,2 8,3 21 11 35 19 WSW 17 0 0,0
13.11.2018 11:00:00 5,7 5,7 5,2 6,3 5,0 8,3 9 5 19 10 S 0,2 0 0,0
13.11.2018 10:00:00 5,3 5,3 4,5 5,9 4,8 8,3 16 8 26 14 S 0,2 0 0,0
13.11.2018 09:00:00 3,8 3,7 2,8 4,6 4,8 8,3 18 10 32 17 S 0,1 0 0,0
13.11.2018 08:00:00 5,2 5,0 3,9 3,7 4,9 8,3 25 13 30 16 SSW 0,5 0 0,0
13.11.2018 07:00:00 2,9 2,8 1,6 3,4 4,9 8,3 26 14 28 15 S 0,1 0 0,0
13.11.2018 06:00:00 3,1 2,9 1,6 3,4 5,0 8,3 22 12 31 17 S 0,3 0 0,0
13.11.2018 05:00:00 3,1 3,0 1,7 3,6 5,1 8,3 24 13 32 17 S 0,1 0 0,0
13.11.2018 04:00:00 3,3 3,2 1,8 3,6 5,2 8,3 22 12 30 16 S 0,2 0 0,0
13.11.2018 03:00:00 3,1 3,1 1,7 3,9 5,3 8,3 16 9 21 11 S 0,1 0 0,0
13.11.2018 02:00:00 3,2 3,1 2,0 4,2 5,4 8,4 18 10 24 13 S 0,1 0 0,0
13.11.2018 01:00:00 3,3 3,2 2,1 4,4 5,5 8,4 16 9 26 14 S 0,1 0 0,0
13.11.2018 00:00:00 3,6 3,5 2,3 4,5 5,5 8,4 21 11 26 14 S 0,1 0 0,0
12.11.2018 23:00:00 3,9 3,9 2,7 4,6 5,6 8,4 21 11 29 16 S 0,1 0 0,0
12.11.2018 22:00:00 3,9 3,9 2,7 4,7 5,7 8,4 23 12 33 18 S 0,1 0 0,0
12.11.2018 21:00:00 4,1 4,1 2,8 4,9 5,8 8,4 24 13 40 22 S 0,1 0 0,0
12.11.2018 20:00:00 4,3 4,2 3,1 5,1 5,8 8,4 29 16 38 20 S 0,1 0 0,0
12.11.2018 19:00:00 4,3 4,2 3,1 5,2 5,9 8,4 29 16 37 20 S 0,1 0 0,0
12.11.2018 18:00:00 4,4 4,3 3,2 5,3 6,0 8,4 27 15 36 20 S 0,1 0 0,0
12.11.2018 17:00:00 4,5 4,4 3,2 5,5 6,0 8,4 30 16 39 21 S 0,1 0 0,0
12.11.2018 16:00:00 4,5 4,5 3,3 5,8 6,0 8,4 27 15 38 20 S 0,1 0 0,0
12.11.2018 15:00:00 4,2 4,1 3,2 6,2 6,0 8,4 27 15 37 20 SSE 0,1 0 0,0
12.11.2018 14:00:00 3,9 3,9 3,1 6,5 5,9 8,4 28 15 39 21 SSE 0,1 0 0,0
12.11.2018 13:00:00 3,9 3,8 3,2 7,3 5,7 8,4 26 14 34 18 SSE - 0 0,0
12.11.2018 12:00:00 3,8 3,7 3,3 7,2 5,5 8,4 24 13 31 17 SSE 0,1 0 0,0
12.11.2018 11:00:00 4,1 4,0 3,6 6,7 5,3 8,4 21 11 35 19 SSE 0,1 0 0,0
12.11.2018 10:00:00 3,7 3,7 2,9 5,6 5,3 8,4 28 15 41 22 SSE 0,1 0 0,0
12.11.2018 09:00:00 3,0 2,9 2,2 4,7 5,3 8,4 29 16 39 21 SSE - 0 0,0
12.11.2018 08:00:00 3,6 3,5 2,5 4,5 5,3 8,4 20 11 32 17 SSE 0,1 0 0,0
12.11.2018 07:00:00 4,2 4,1 2,9 4,2 5,3 8,4 16 9 24 13 SSE 0,1 0 0,0
12.11.2018 06:00:00 3,5 3,4 2,2 4,1 5,4 8,4 15 8 22 12 S 0,1 0 0,0
12.11.2018 05:00:00 4,1 4,0 2,6 4,0 5,5 8,4 16 9 25 14 S 0,1 0 0,0
12.11.2018 04:00:00 5,8 5,1 3,0 3,9 5,6 8,4 18 10 27 15 SSW 6 0 0,0
12.11.2018 03:00:00 6,8 5,7 4,0 4,4 5,7 8,4 25 13 34 18 SSW 41 0 0,0
12.11.2018 02:00:00 6,7 5,7 4,1 4,6 5,8 8,4 29 15 39 21 SSW 36 0 0,0
12.11.2018 01:00:00 6,3 5,7 4,0 4,9 5,9 8,4 28 15 45 24 S 12 0 0,0
12.11.2018 00:00:00 6,4 6,1 4,2 5,2 6,0 8,4 32 17 44 24 S 8 0 0,0
11.11.2018 23:00:00 6,2 6,1 4,4 5,3 6,0 8,4 27 15 37 20 S 0,2 0 0,0
11.11.2018 22:00:00 6,2 6,1 4,0 5,3 6,1 8,5 28 15 39 21 SSW 4,6 0 0,0
11.11.2018 21:00:00 5,8 5,8 4,4 5,9 6,1 8,5 26 14 35 19 S 0,1 0 0,0
11.11.2018 20:00:00 5,7 5,7 4,4 5,9 6,1 8,5 22 12 36 19 S 0,1 0 0,0
11.11.2018 19:00:00 5,3 5,3 4,0 5,8 6,2 8,5 22 12 34 18 S 0,1 0 0,0
11.11.2018 18:00:00 5,2 5,2 3,9 5,8 6,2 8,5 27 14 41 22 S 0,1 0 0,0
11.11.2018 17:00:00 5,1 5,1 3,7 6,1 6,2 8,5 24 13 35 19 S 0,1 0 0,0
11.11.2018 16:00:00 5,0 4,9 3,9 6,7 6,2 8,5 24 13 36 19 S 0,1 0 0,0
11.11.2018 15:00:00 4,8 4,7 4,1 7,3 6,0 8,5 20 11 31 17 S 0,1 4 0,0
11.11.2018 14:00:00 7,2 7,0 7,8 7,8 5,7 8,5 23 12 36 19 SSW 4,9 12 0,0
11.11.2018 13:00:00 4,5 4,4 3,8 6,8 5,6 8,5 29 16 45 25 S 0,4 0 0,0
11.11.2018 12:00:00 5,3 5,3 4,6 7,1 5,4 8,5 29 16 42 23 S 3,4 2 0,0
11.11.2018 11:00:00 4,0 4,0 3,3 5,5 5,3 8,5 26 14 38 21 S 0,1 0 0,0
11.11.2018 10:00:00 3,7 3,7 2,8 5,1 5,3 8,5 25 13 38 20 S - 0 0,0
11.11.2018 09:00:00 3,4 3,4 2,4 4,5 5,3 8,5 26 14 35 19 S - 0 0,0
11.11.2018 08:00:00 3,3 3,2 2,2 4,4 5,4 8,5 20 11 27 15 S - 0 0,0
11.11.2018 07:00:00 3,3 3,3 2,2 4,3 5,4 8,5 19 11 36 20 S - 0 0,0
11.11.2018 06:00:00 3,4 3,3 2,2 4,4 5,5 8,5 25 14 38 20 S - 0 0,0
11.11.2018 05:00:00 3,4 3,3 2,3 4,4 5,5 8,5 23 13 38 20 S 0,1 0 0,0
11.11.2018 04:00:00 3,5 3,5 2,4 4,5 5,6 8,5 25 14 36 19 S 0,1 0 0,0

tt = temperature
td = dewpoint
tt 5cm = temperature 5cm
tt -5cm = temperature -5cm
tt -20cm = temperature -20cm
tt -100cm = temperature -100cm
ff = wind speed
fx = gusts
dd = wind direction
vv = visibility
sd = sunshine duration
rr = precipitation

Next stations